createdAt,value
2022-10-02T00:02:02.719Z,99.61
2022-10-02T00:04:35.285Z,99.60
2022-10-02T00:07:08.040Z,99.33
2022-10-02T00:09:42.820Z,99.53
2022-10-02T00:12:15.318Z,99.45
2022-10-02T00:14:47.298Z,99.67
2022-10-02T00:17:20.367Z,99.77
2022-10-02T00:19:48.103Z,99.96
2022-10-02T00:22:27.107Z,99.87
2022-10-02T00:25:04.300Z,100.00
2022-10-02T00:27:45.025Z,100.00
2022-10-02T00:30:16.206Z,99.75
2022-10-02T00:32:56.307Z,100.00
2022-10-02T00:36:08.886Z,100.00
2022-10-02T00:38:49.360Z,99.79
2022-10-02T00:41:45.577Z,99.58
2022-10-02T00:44:34.085Z,98.87
2022-10-02T00:47:11.169Z,98.33
2022-10-02T00:50:05.296Z,97.85
2022-10-02T00:52:48.518Z,97.74
2022-10-02T00:55:32.864Z,97.49
2022-10-02T00:58:18.529Z,96.79
2022-10-02T01:00:59.139Z,96.87
2022-10-02T01:03:30.763Z,96.43
2022-10-02T01:05:58.611Z,96.63
2022-10-02T01:08:27.069Z,96.47
2022-10-02T01:10:55.435Z,96.29
2022-10-02T01:13:23.473Z,96.19
2022-10-02T01:15:55.037Z,95.93
2022-10-02T01:18:23.398Z,95.72
2022-10-02T01:20:54.396Z,95.31
2022-10-02T01:23:31.530Z,95.93
2022-10-02T01:26:00.826Z,96.11
2022-10-02T01:28:29.086Z,96.24
2022-10-02T01:31:02.699Z,96.72
2022-10-02T01:33:31.654Z,96.71
2022-10-02T01:35:59.552Z,97.39
2022-10-02T01:38:29.238Z,96.99
2022-10-02T01:40:56.996Z,96.62
2022-10-02T01:43:30.710Z,95.94
2022-10-02T01:46:09.019Z,95.29
2022-10-02T01:48:45.945Z,94.86
2022-10-02T01:51:37.842Z,94.65
2022-10-02T01:54:17.094Z,94.51
2022-10-02T01:56:55.425Z,94.26
2022-10-02T01:59:36.533Z,94.79
2022-10-02T02:02:13.829Z,94.38
2022-10-02T02:04:49.675Z,94.28
2022-10-02T02:07:28.216Z,94.53
2022-10-02T02:10:02.351Z,94.80
2022-10-02T02:12:40.330Z,95.19
2022-10-02T02:15:14.284Z,94.86
2022-10-02T02:17:51.973Z,95.21
2022-10-02T02:20:27.025Z,95.09
2022-10-02T02:22:57.614Z,95.27
2022-10-02T02:25:29.141Z,95.35
2022-10-02T02:27:59.807Z,95.19
2022-10-02T02:30:31.998Z,95.33
2022-10-02T02:33:05.253Z,95.27
2022-10-02T02:35:37.116Z,95.45
2022-10-02T02:38:07.776Z,95.08
2022-10-02T02:40:40.572Z,94.86
2022-10-02T02:43:12.869Z,94.63
2022-10-02T02:45:48.194Z,94.81
2022-10-02T02:48:22.218Z,94.05
2022-10-02T02:50:52.955Z,94.19
2022-10-02T02:53:25.529Z,94.10
2022-10-02T02:55:56.813Z,94.40
2022-10-02T02:58:29.462Z,94.51
2022-10-02T03:00:58.969Z,94.20
2022-10-02T03:03:27.951Z,93.84
2022-10-02T03:06:04.455Z,93.88
2022-10-02T03:08:35.246Z,93.51
2022-10-02T03:11:12.946Z,93.43
2022-10-02T03:13:59.060Z,93.66
2022-10-02T03:16:42.472Z,93.62
2022-10-02T03:19:28.450Z,93.48
2022-10-02T03:22:05.558Z,93.18
2022-10-02T03:24:41.374Z,93.13
2022-10-02T03:27:13.300Z,93.15
2022-10-02T03:29:46.362Z,93.38
2022-10-02T03:32:19.456Z,92.77
2022-10-02T03:34:49.462Z,93.13
2022-10-02T03:37:18.746Z,93.00
2022-10-02T03:39:46.891Z,92.61
2022-10-02T03:42:16.232Z,92.79
2022-10-02T03:44:44.821Z,92.63
2022-10-02T03:47:12.672Z,91.66
2022-10-02T03:49:41.776Z,91.95
2022-10-02T03:52:16.299Z,91.62
2022-10-02T03:54:44.990Z,91.24
2022-10-02T03:57:18.976Z,91.60
2022-10-02T03:59:51.807Z,91.54
2022-10-02T04:02:32.021Z,91.61
2022-10-02T04:05:09.288Z,91.77
2022-10-02T04:07:41.161Z,92.01
2022-10-02T04:10:26.887Z,92.21
2022-10-02T04:13:02.592Z,91.89
2022-10-02T04:15:36.411Z,91.67
2022-10-02T04:18:09.003Z,91.11
2022-10-02T04:20:44.759Z,91.25
2022-10-02T04:23:19.067Z,91.33
2022-10-02T04:25:53.203Z,91.53
2022-10-02T04:28:25.682Z,91.34
2022-10-02T04:30:54.554Z,91.41
2022-10-02T04:33:25.283Z,91.41
2022-10-02T04:36:09.477Z,91.31
2022-10-02T04:38:48.375Z,91.37
2022-10-02T04:41:48.289Z,91.91
2022-10-02T04:44:27.743Z,92.31
2022-10-02T04:47:09.000Z,92.50
2022-10-02T04:50:13.270Z,92.69
2022-10-02T04:53:03.677Z,93.08
2022-10-02T04:55:51.186Z,92.96
2022-10-02T04:58:47.696Z,93.26
2022-10-02T05:01:28.406Z,93.03
2022-10-02T05:04:20.234Z,93.15
2022-10-02T05:07:06.509Z,92.83
2022-10-02T05:09:43.275Z,93.29
2022-10-02T05:12:34.714Z,93.36
2022-10-02T05:15:12.025Z,93.49
2022-10-02T05:17:58.575Z,94.05
2022-10-02T05:20:45.449Z,94.83
2022-10-02T05:23:27.866Z,94.93
2022-10-02T05:26:15.114Z,95.13
2022-10-02T05:29:09.834Z,95.53
2022-10-02T05:31:52.178Z,95.23
2022-10-02T05:34:37.585Z,95.53
2022-10-02T05:37:27.176Z,95.81
2022-10-02T05:40:02.779Z,95.69
2022-10-02T05:42:40.020Z,96.13
2022-10-02T05:45:20.322Z,95.99
2022-10-02T05:47:50.510Z,96.57
2022-10-02T05:50:21.136Z,96.55
2022-10-02T05:52:58.252Z,96.73
2022-10-02T05:55:32.510Z,96.66
2022-10-02T05:58:07.414Z,96.58
2022-10-02T06:00:43.942Z,96.70
2022-10-02T06:03:18.476Z,96.39
2022-10-02T06:05:55.215Z,96.93
2022-10-02T06:08:31.412Z,96.95
2022-10-02T06:11:06.364Z,96.75
2022-10-02T06:13:41.663Z,97.18
2022-10-02T06:16:15.411Z,97.12
2022-10-02T06:18:49.041Z,97.08
2022-10-02T06:21:26.731Z,97.59
2022-10-02T06:23:58.994Z,97.47
2022-10-02T06:26:34.410Z,98.00
2022-10-02T06:29:08.269Z,97.90
2022-10-02T06:31:42.902Z,98.26
2022-10-02T06:34:13.483Z,98.31
2022-10-02T06:37:04.690Z,98.51
2022-10-02T06:39:55.405Z,98.31
2022-10-02T06:42:34.045Z,98.18
2022-10-02T06:45:11.923Z,98.44
2022-10-02T06:47:58.377Z,98.82
2022-10-02T06:50:37.992Z,98.69
2022-10-02T06:53:18.542Z,98.80
2022-10-02T06:55:51.854Z,98.76
2022-10-02T06:58:53.028Z,98.90
2022-10-02T07:01:35.343Z,99.00
2022-10-02T07:04:17.760Z,98.62
2022-10-02T07:06:58.749Z,98.61
2022-10-02T07:09:56.369Z,98.50
2022-10-02T07:12:50.557Z,98.85
2022-10-02T07:15:45.330Z,98.50
2022-10-02T07:18:22.924Z,98.71
2022-10-02T07:21:01.002Z,98.77
2022-10-02T07:23:44.167Z,98.99
2022-10-02T07:26:34.827Z,99.03
2022-10-02T07:29:18.298Z,98.72
2022-10-02T07:31:55.422Z,99.16
2022-10-02T07:34:36.397Z,98.92
2022-10-02T07:37:18.556Z,99.26
2022-10-02T07:39:57.890Z,99.29
2022-10-02T07:42:41.600Z,99.05
2022-10-02T07:45:27.791Z,99.47
2022-10-02T07:48:27.666Z,99.33
2022-10-02T07:51:40.028Z,99.72
2022-10-02T07:54:32.744Z,99.83
2022-10-02T07:57:09.663Z,99.55
2022-10-02T07:59:43.623Z,99.82
2022-10-02T08:02:28.363Z,99.94
2022-10-02T08:05:00.266Z,99.51
2022-10-02T08:07:30.513Z,99.10
2022-10-02T08:10:04.319Z,99.46
2022-10-02T08:12:39.439Z,99.19
2022-10-02T08:15:15.599Z,99.10
2022-10-02T08:17:49.849Z,98.98
2022-10-02T08:20:29.171Z,99.06
2022-10-02T08:23:05.069Z,99.28
2022-10-02T08:25:41.095Z,99.26
2022-10-02T08:28:19.625Z,98.62
2022-10-02T08:30:47.918Z,98.65
2022-10-02T08:33:18.885Z,98.19
2022-10-02T08:35:59.163Z,98.38
2022-10-02T08:38:37.788Z,97.92
2022-10-02T08:41:31.920Z,97.92
2022-10-02T08:44:37.150Z,97.95
2022-10-02T08:47:33.206Z,98.30
2022-10-02T08:50:42.980Z,97.54
2022-10-02T08:53:59.169Z,97.29
2022-10-02T08:56:40.446Z,97.36
2022-10-02T08:59:56.034Z,97.96
2022-10-02T09:02:57.842Z,97.29
2022-10-02T09:06:03.680Z,97.12
2022-10-02T09:09:11.679Z,97.29
2022-10-02T09:12:14.854Z,96.99
2022-10-02T09:14:58.017Z,97.48
2022-10-02T09:17:58.897Z,96.53
2022-10-02T09:20:44.728Z,96.98
2022-10-02T09:23:52.629Z,97.37
2022-10-02T09:26:34.517Z,96.78
2022-10-02T09:29:29.202Z,97.35
2022-10-02T09:32:35.811Z,97.26
2022-10-02T09:35:40.458Z,96.97
2022-10-02T09:38:53.638Z,97.16
2022-10-02T09:42:00.076Z,97.77
2022-10-02T09:45:01.532Z,97.56
2022-10-02T09:48:05.089Z,97.99
2022-10-02T09:51:05.676Z,98.24
2022-10-02T09:54:04.875Z,98.14
2022-10-02T09:57:03.076Z,97.96
2022-10-02T10:00:12.720Z,98.12
2022-10-02T10:03:22.707Z,97.65
2022-10-02T10:06:25.731Z,97.27
2022-10-02T10:09:17.256Z,97.07
2022-10-02T10:12:03.274Z,97.55
2022-10-02T10:15:17.179Z,97.21
2022-10-02T10:18:39.549Z,97.05
2022-10-02T10:21:55.672Z,96.80
2022-10-02T10:24:56.238Z,96.57
2022-10-02T10:27:57.296Z,96.24
2022-10-02T10:30:53.706Z,95.84
2022-10-02T10:33:52.403Z,96.07
2022-10-02T10:37:03.333Z,96.36
2022-10-02T10:40:00.184Z,95.83
2022-10-02T10:43:07.012Z,95.92
2022-10-02T10:45:49.784Z,96.18
2022-10-02T10:48:33.890Z,96.41
2022-10-02T10:51:17.916Z,96.81
2022-10-02T10:54:11.194Z,97.01
2022-10-02T10:56:44.709Z,96.12
2022-10-02T10:59:51.627Z,96.80
2022-10-02T11:02:53.194Z,96.97
2022-10-02T11:06:03.666Z,97.07
2022-10-02T11:08:58.412Z,96.79
2022-10-02T11:11:38.350Z,96.61
2022-10-02T11:14:27.479Z,96.84
2022-10-02T11:17:40.089Z,96.93
2022-10-02T11:20:35.917Z,96.92
2022-10-02T11:23:27.439Z,96.89
2022-10-02T11:26:32.327Z,96.49
2022-10-02T11:29:41.708Z,96.58
2022-10-02T11:32:48.334Z,96.30
2022-10-02T11:35:31.084Z,96.50
2022-10-02T11:38:35.420Z,96.94
2022-10-02T11:41:17.556Z,96.65
2022-10-02T11:44:05.494Z,96.50
2022-10-02T11:47:14.807Z,96.85
2022-10-02T11:50:14.083Z,97.39
2022-10-02T11:53:08.288Z,97.35
2022-10-02T11:55:51.960Z,97.62
2022-10-02T11:58:36.767Z,97.27
2022-10-02T12:01:18.078Z,97.39
2022-10-02T12:04:24.027Z,96.59
2022-10-02T12:07:10.625Z,95.97
2022-10-02T12:09:54.626Z,95.66
2022-10-02T12:12:37.761Z,95.43
2022-10-02T12:15:15.227Z,95.34
2022-10-02T12:18:20.886Z,96.63
2022-10-02T12:21:27.756Z,96.05
2022-10-02T12:24:18.845Z,95.59
2022-10-02T12:27:00.139Z,95.48
2022-10-02T12:29:50.489Z,95.53
2022-10-02T12:32:49.721Z,95.42
2022-10-02T12:35:31.370Z,95.04
2022-10-02T12:38:16.170Z,94.34
2022-10-02T12:40:53.852Z,94.42
2022-10-02T12:43:53.802Z,93.96
2022-10-02T12:46:48.731Z,94.25
2022-10-02T12:49:45.560Z,94.51
2022-10-02T12:52:49.955Z,94.56
2022-10-02T12:55:55.177Z,94.20
2022-10-02T12:58:34.278Z,94.87
2022-10-02T13:01:43.126Z,94.12
2022-10-02T13:04:39.075Z,94.47
2022-10-02T13:07:38.824Z,93.37
2022-10-02T13:10:17.449Z,95.04
2022-10-02T13:13:03.233Z,93.98
2022-10-02T13:15:42.972Z,94.02
2022-10-02T13:18:43.706Z,93.73
2022-10-02T13:21:19.351Z,94.22
2022-10-02T13:23:59.271Z,94.35
2022-10-02T13:26:34.634Z,94.62
2022-10-02T13:29:19.435Z,93.80
2022-10-02T13:32:00.643Z,93.90
2022-10-02T13:34:58.678Z,94.11
2022-10-02T13:37:40.773Z,94.53
2022-10-02T13:40:23.324Z,94.30
2022-10-02T13:43:05.957Z,94.77
2022-10-02T13:45:42.195Z,93.92
2022-10-02T13:48:23.078Z,94.16
2022-10-02T13:50:58.370Z,94.63
2022-10-02T13:54:03.946Z,93.32
2022-10-02T13:56:47.584Z,93.25
2022-10-02T13:59:29.656Z,93.30
2022-10-02T14:02:14.043Z,92.96
2022-10-02T14:04:56.392Z,91.70
2022-10-02T14:07:38.531Z,91.27
2022-10-02T14:10:16.946Z,92.55
2022-10-02T14:13:00.951Z,91.58
2022-10-02T14:15:38.610Z,90.76
2022-10-02T14:18:26.287Z,89.61
2022-10-02T14:21:04.903Z,90.63
2022-10-02T14:23:47.862Z,89.07
2022-10-02T14:26:27.592Z,89.74
2022-10-02T14:29:27.322Z,89.33
2022-10-02T14:32:18.507Z,89.90
2022-10-02T14:35:12.125Z,89.98
2022-10-02T14:38:13.858Z,90.62
2022-10-02T14:40:52.414Z,90.11
2022-10-02T14:43:46.692Z,89.32
2022-10-02T14:46:25.889Z,89.93
2022-10-02T14:49:20.484Z,91.72
2022-10-02T14:52:23.866Z,91.23
2022-10-02T14:55:15.322Z,91.52
2022-10-02T14:57:58.308Z,91.82
2022-10-02T15:00:29.796Z,90.20
2022-10-02T15:03:36.313Z,90.75
2022-10-02T15:06:21.842Z,91.70
2022-10-02T15:08:53.516Z,93.45
2022-10-02T15:11:41.125Z,91.69
2022-10-02T15:14:14.016Z,91.62
2022-10-02T15:17:04.618Z,91.68
2022-10-02T15:19:40.157Z,91.87
2022-10-02T15:22:19.291Z,92.14
2022-10-02T15:24:50.836Z,91.79
2022-10-02T15:27:24.568Z,91.82
2022-10-02T15:30:13.199Z,92.19
2022-10-02T15:33:02.555Z,92.50
2022-10-02T15:35:46.439Z,92.25
2022-10-02T15:38:32.038Z,92.17
2022-10-02T15:41:29.643Z,92.23
2022-10-02T15:44:06.907Z,93.35
2022-10-02T15:46:48.874Z,93.41
2022-10-02T15:49:27.698Z,92.65
2022-10-02T15:52:09.827Z,93.42
2022-10-02T15:54:50.707Z,93.14
2022-10-02T15:57:44.787Z,93.90
2022-10-02T16:00:17.153Z,94.18
2022-10-02T16:03:13.366Z,94.14
2022-10-02T16:05:53.327Z,95.03
2022-10-02T16:08:46.733Z,94.38
2022-10-02T16:11:34.791Z,94.35
2022-10-02T16:14:10.403Z,94.88
2022-10-02T16:17:14.468Z,95.29
2022-10-02T16:20:03.408Z,95.80
2022-10-02T16:22:45.178Z,95.54
2022-10-02T16:25:32.175Z,95.90
2022-10-02T16:28:20.399Z,96.15
2022-10-02T16:31:09.441Z,96.05
2022-10-02T16:33:49.890Z,96.39
2022-10-02T16:36:34.522Z,96.58
2022-10-02T16:39:17.066Z,96.50
2022-10-02T16:41:59.911Z,97.01
2022-10-02T16:44:50.335Z,97.14
2022-10-02T16:47:28.648Z,97.54
2022-10-02T16:50:14.649Z,97.68
2022-10-02T16:52:47.602Z,97.68
2022-10-02T16:55:22.032Z,97.58
2022-10-02T16:58:10.989Z,97.79
2022-10-02T17:00:50.620Z,98.14
2022-10-02T17:03:29.325Z,98.03
2022-10-02T17:06:04.433Z,98.44
2022-10-02T17:08:39.856Z,98.98
2022-10-02T17:11:18.546Z,99.34
2022-10-02T17:13:58.946Z,99.79
2022-10-02T17:16:34.012Z,99.80
2022-10-02T17:19:17.759Z,99.96
2022-10-02T17:21:53.478Z,100.00
2022-10-02T17:24:32.644Z,100.00
2022-10-02T17:27:14.046Z,100.00
2022-10-02T17:29:51.535Z,100.00
2022-10-02T17:32:35.548Z,100.00
2022-10-02T17:35:03.523Z,100.00
2022-10-02T17:37:56.964Z,100.00
2022-10-02T17:40:29.294Z,100.00
2022-10-02T17:43:11.641Z,100.00
2022-10-02T17:45:48.233Z,100.00
2022-10-02T17:48:32.214Z,100.00
2022-10-02T17:51:47.064Z,100.00
2022-10-02T17:54:36.351Z,100.00
2022-10-02T17:57:25.271Z,100.00
2022-10-02T18:00:11.278Z,100.00
2022-10-02T18:03:16.598Z,100.00
2022-10-02T18:05:54.657Z,100.00
2022-10-02T18:08:51.067Z,100.00
2022-10-02T18:11:41.370Z,100.00
2022-10-02T18:14:26.414Z,100.00
2022-10-02T18:17:14.187Z,100.00
2022-10-02T18:19:56.277Z,100.00
2022-10-02T18:22:49.892Z,100.00
2022-10-02T18:25:30.869Z,100.00
2022-10-02T18:28:14.320Z,100.00
2022-10-02T18:30:50.057Z,100.00
2022-10-02T18:33:33.908Z,100.00
2022-10-02T18:36:13.856Z,100.00
2022-10-02T18:38:56.633Z,100.00
2022-10-02T18:41:41.124Z,100.00
2022-10-02T18:44:21.891Z,100.00
2022-10-02T18:46:59.233Z,100.00
2022-10-02T18:49:39.614Z,100.00
2022-10-02T18:52:26.559Z,100.00
2022-10-02T18:55:09.090Z,100.00
2022-10-02T18:57:48.412Z,100.00
2022-10-02T19:00:21.449Z,100.00
2022-10-02T19:03:15.990Z,100.00
2022-10-02T19:05:52.849Z,100.00
2022-10-02T19:08:26.219Z,100.00
2022-10-02T19:10:54.749Z,100.00
2022-10-02T19:13:25.580Z,100.00
2022-10-02T19:15:58.230Z,100.00
2022-10-02T19:18:27.932Z,100.00
2022-10-02T19:21:02.882Z,100.00
2022-10-02T19:23:35.761Z,100.00
2022-10-02T19:26:07.901Z,100.00
2022-10-02T19:28:46.625Z,100.00
2022-10-02T19:31:22.564Z,100.00
2022-10-02T19:33:54.797Z,99.95
2022-10-02T19:36:27.350Z,100.00
2022-10-02T19:39:01.341Z,100.00
2022-10-02T19:41:35.912Z,100.00
2022-10-02T19:44:12.178Z,100.00
2022-10-02T19:46:45.483Z,100.00
2022-10-02T19:49:20.251Z,99.59
2022-10-02T19:51:48.718Z,99.07
2022-10-02T19:54:21.191Z,96.94
2022-10-02T19:56:51.646Z,96.79
2022-10-02T19:59:21.728Z,96.77
2022-10-02T20:01:53.129Z,96.33
2022-10-02T20:04:22.702Z,94.37
2022-10-02T20:06:53.854Z,93.05
2022-10-02T20:09:28.416Z,91.54
2022-10-02T20:12:01.098Z,91.59
2022-10-02T20:14:34.005Z,90.75
2022-10-02T20:17:08.956Z,88.73
2022-10-02T20:19:42.232Z,87.99
2022-10-02T20:22:19.605Z,88.85
2022-10-02T20:24:52.191Z,89.03
2022-10-02T20:27:26.829Z,88.73
2022-10-02T20:30:00.845Z,88.76
2022-10-02T20:32:35.999Z,88.87
2022-10-02T20:35:11.191Z,89.87
2022-10-02T20:37:41.361Z,89.51
2022-10-02T20:40:16.559Z,89.68
2022-10-02T20:42:50.252Z,90.60
2022-10-02T20:45:18.722Z,90.58
2022-10-02T20:48:22.380Z,89.30
2022-10-02T20:51:01.891Z,88.77
2022-10-02T20:54:08.601Z,89.81
2022-10-02T20:57:03.677Z,89.56
2022-10-02T21:00:05.505Z,90.04
2022-10-02T21:03:23.180Z,89.93
2022-10-02T21:06:08.382Z,89.87
2022-10-02T21:09:14.959Z,90.20
2022-10-02T21:12:10.615Z,91.76
2022-10-02T21:15:03.719Z,91.44
2022-10-02T21:17:59.000Z,93.17
2022-10-02T21:20:51.805Z,94.36
2022-10-02T21:23:55.073Z,96.73
2022-10-02T21:26:49.566Z,97.13
2022-10-02T21:29:53.930Z,97.48
2022-10-02T21:32:40.890Z,98.84
2022-10-02T21:35:16.427Z,100.00
2022-10-02T21:38:01.918Z,100.00
2022-10-02T21:41:05.885Z,100.00
2022-10-02T21:44:05.457Z,100.00
2022-10-02T21:46:54.768Z,100.00
2022-10-02T21:49:55.328Z,100.00
2022-10-02T21:53:01.575Z,100.00
2022-10-02T21:56:20.049Z,100.00
2022-10-02T21:59:22.250Z,100.00
2022-10-02T22:02:18.073Z,100.00
2022-10-02T22:05:27.078Z,100.00
2022-10-02T22:08:08.079Z,100.00
2022-10-02T22:10:47.534Z,100.00
2022-10-02T22:13:25.239Z,100.00
2022-10-02T22:16:09.783Z,100.00
2022-10-02T22:18:48.463Z,100.00
2022-10-02T22:21:36.123Z,100.00
2022-10-02T22:24:17.178Z,100.00
2022-10-02T22:27:17.372Z,100.00
2022-10-02T22:29:47.425Z,100.00
2022-10-02T22:32:50.807Z,100.00
2022-10-02T22:35:29.838Z,100.00
2022-10-02T22:38:12.422Z,100.00
2022-10-02T22:40:46.874Z,100.00
2022-10-02T22:43:24.954Z,100.00
2022-10-02T22:45:58.614Z,100.00
2022-10-02T22:48:38.600Z,100.00
2022-10-02T22:51:17.253Z,100.00
2022-10-02T22:53:50.810Z,100.00
2022-10-02T22:56:29.708Z,100.00
2022-10-02T22:59:07.603Z,100.00
2022-10-02T23:01:45.459Z,100.00
2022-10-02T23:04:26.633Z,100.00
2022-10-02T23:07:02.175Z,100.00
2022-10-02T23:09:41.443Z,100.00
2022-10-02T23:12:16.228Z,100.00
2022-10-02T23:14:55.107Z,100.00
2022-10-02T23:17:27.454Z,100.00
2022-10-02T23:20:02.009Z,100.00
2022-10-02T23:22:34.596Z,100.00
2022-10-02T23:25:14.953Z,100.00
2022-10-02T23:27:49.316Z,100.00
2022-10-02T23:30:20.549Z,100.00
2022-10-02T23:32:53.185Z,100.00
2022-10-02T23:35:28.420Z,100.00
2022-10-02T23:38:02.442Z,100.00
2022-10-02T23:40:52.544Z,100.00
2022-10-02T23:43:27.418Z,100.00
2022-10-02T23:46:02.366Z,100.00
2022-10-02T23:48:32.410Z,100.00
2022-10-02T23:51:13.972Z,100.00
2022-10-02T23:54:14.027Z,100.00
2022-10-02T23:57:08.835Z,100.00
